Terminal Aerodrome Forecast
Issued by NWS Green Bay, WI

Home | Current Version | Previous Version | Graphics & Text | Print | Product List | Glossary On
Versions: 1 2 3 4 5 6 7 8 9 10 11 12 13 14 15 16 17 18 19 20 21 22 23 24 25 26 27 28 29 30 31 32 33 34 35 36
047
FTUS43 KGRB 221125
TAFGRB
TAF
KGRB 221125Z 2212/2312 VRB03KT P6SM SCT030 OVC200
      TEMPO 2212/2214 BKN030
     FM221500 06006KT P6SM BKN035
     FM222000 04007KT P6SM BKN040
     FM230100 11005KT P6SM BKN050 PROB30 2302/2306 5SM -TSRA
      BKN025CB
     FM230600 23004KT 5SM BR VCSH BKN030
     FM231000 26005KT 4SM BR SCT008 BKN025=

USA.gov is the U.S. government's official web portal to all federal, state and local government web resources and services.